Time;durP1;ratioP1;P1;durP2;ratioP2;P2;SDS_P1;SDS_P2;PMS_P1;PMS_P2;Temp;Humidity;BMP_temperature;BMP_pressure;BME280_temperature;BME280_humidity;BME280_pressure;Samples;Min_cycle;Max_cycle;Signal;HPM_P1;HPM_P2
2022/11/26 00:00:12;;;;;;;;;;;;;;;19.63;40.34;96486.44;10458612;28;2876;-52
2022/11/26 00:05:22;;;;;;;;;;;;;;;19.64;40.46;96484.63;10441874;28;2479;-53
2022/11/26 00:10:23;;;;;;;;;;;;;;;19.64;40.33;96482.00;10437807;28;2506;-54
2022/11/26 00:15:27;;;;;;;;;;;;;;;19.61;40.46;96482.47;10427166;28;2477;-56
2022/11/26 00:20:28;;;;;;;;;;;;;;;19.61;40.33;96493.78;10435263;28;2475;-55
2022/11/26 00:25:31;;;;;;;;;;;;;;;19.60;40.28;96491.44;10427332;28;2568;-55
2022/11/26 00:30:31;;;;;;;;;;;;;;;19.58;40.51;96490.88;10431365;28;2498;-53
2022/11/26 00:35:32;;;;;;;;;;;;;;;19.55;40.28;96496.63;10422545;28;2551;-53
2022/11/26 00:40:32;;;;;;;;;;;;;;;19.57;40.26;96492.72;10428562;28;2316;-56
2022/11/26 00:45:40;;;;;;;;;;;;;;;19.53;40.33;96503.97;10435617;28;2477;-54
2022/11/26 00:50:47;;;;;;;;;;;;;;;19.51;40.41;96514.75;10436677;28;2379;-52
2022/11/26 00:55:48;;;;;;;;;;;;;;;19.52;40.23;96520.78;10431303;28;2463;-55
2022/11/26 01:00:48;;;;;;;;;;;;;;;19.51;40.38;96524.47;10431135;28;2432;-54
2022/11/26 01:05:49;;;;;;;;;;;;;;;19.51;40.38;96527.09;10423404;28;2419;-53
2022/11/26 01:10:49;;;;;;;;;;;;;;;19.50;40.20;96542.06;10427600;28;2463;-54
2022/11/26 01:15:58;;;;;;;;;;;;;;;19.49;40.35;96545.75;10426098;28;2476;-55
2022/11/26 01:20:59;;;;;;;;;;;;;;;19.49;40.15;96543.13;10451967;28;2522;-56
2022/11/26 01:25:59;;;;;;;;;;;;;;;19.48;40.21;96546.78;10425064;28;2465;-56
2022/11/26 01:30:59;;;;;;;;;;;;;;;19.45;40.16;96544.66;10433649;28;2469;-55
2022/11/26 01:35:59;;;;;;;;;;;;;;;19.46;40.20;96560.19;10432173;28;2480;-55
2022/11/26 01:41:02;;;;;;;;;;;;;;;19.44;40.01;96550.94;10435950;28;2446;-55
2022/11/26 01:46:02;;;;;;;;;;;;;;;19.41;40.27;96562.75;10440780;28;2454;-55
2022/11/26 01:51:06;;;;;;;;;;;;;;;19.43;40.17;96560.66;10452621;28;2400;-55
2022/11/26 01:56:12;;;;;;;;;;;;;;;19.42;40.13;96572.22;10441228;28;2572;-56
2022/11/26 02:01:12;;;;;;;;;;;;;;;19.42;40.09;96576.69;10434103;28;2451;-54
2022/11/26 02:06:15;;;;;;;;;;;;;;;19.40;40.11;96579.56;10435354;28;2472;-56
2022/11/26 02:11:19;;;;;;;;;;;;;;;19.38;40.09;96573.75;10441850;28;2459;-56
2022/11/26 02:16:19;;;;;;;;;;;;;;;19.36;40.27;96575.84;10438354;28;2633;-55
2022/11/26 02:21:25;;;;;;;;;;;;;;;19.37;40.05;96582.69;10439474;28;2498;-55
2022/11/26 02:26:28;;;;;;;;;;;;;;;19.36;40.25;96582.94;10438256;28;2455;-56
2022/11/26 02:31:44;;;;;;;;;;;;;;;19.35;40.21;96584.75;10430614;28;2445;-54
2022/11/26 02:36:48;;;;;;;;;;;;;;;19.34;40.11;96588.44;10432255;28;2778;-54
2022/11/26 02:41:50;;;;;;;;;;;;;;;19.34;40.16;96591.06;10431147;28;2393;-56
2022/11/26 02:46:51;;;;;;;;;;;;;;;19.33;40.08;96589.47;10439349;28;2367;-57
2022/11/26 02:51:53;;;;;;;;;;;;;;;19.33;40.15;96581.56;10445644;28;2487;-56
2022/11/26 02:56:53;;;;;;;;;;;;;;;19.32;40.09;96590.50;10434548;28;2465;-53
2022/11/26 03:01:55;;;;;;;;;;;;;;;19.31;40.05;96598.59;10455270;28;2439;-57
2022/11/26 03:06:57;;;;;;;;;;;;;;;19.29;40.17;96609.38;10429708;28;2439;-55
2022/11/26 03:11:57;;;;;;;;;;;;;;;19.30;40.03;96607.53;10423433;28;2495;-55
2022/11/26 03:16:57;;;;;;;;;;;;;;;19.26;40.17;96611.69;10433306;28;2487;-56
2022/11/26 03:21:57;;;;;;;;;;;;;;;19.25;40.14;96610.91;10437869;28;2428;-56
2022/11/26 03:26:58;;;;;;;;;;;;;;;19.26;39.94;96609.88;10439965;28;2636;-56
2022/11/26 03:31:58;;;;;;;;;;;;;;;19.28;40.02;96604.38;10440103;28;2506;-57
2022/11/26 03:36:58;;;;;;;;;;;;;;;19.23;40.06;96607.72;10438502;28;2420;-56
2022/11/26 03:41:58;;;;;;;;;;;;;;;19.24;40.05;96611.94;10434567;28;2431;-56
2022/11/26 03:46:59;;;;;;;;;;;;;;;19.22;40.09;96614.03;10432080;28;2489;-56
2022/11/26 03:52:00;;;;;;;;;;;;;;;19.21;39.88;96614.25;10440947;28;2535;-52
2022/11/26 03:57:00;;;;;;;;;;;;;;;19.19;40.00;96625.00;10435839;28;2458;-55
2022/11/26 04:02:00;;;;;;;;;;;;;;;19.18;40.01;96641.84;10432278;28;2413;-55
2022/11/26 04:07:00;;;;;;;;;;;;;;;19.20;39.99;96645.00;10411411;28;2511;-56
2022/11/26 04:12:01;;;;;;;;;;;;;;;19.19;39.97;96650.50;10433382;28;2511;-55
2022/11/26 04:17:01;;;;;;;;;;;;;;;19.19;39.75;96659.19;10452355;28;2609;-55
2022/11/26 04:22:01;;;;;;;;;;;;;;;19.24;39.63;96655.84;10434425;28;2506;-54
2022/11/26 04:27:01;;;;;;;;;;;;;;;19.23;39.62;96668.16;10432384;28;2442;-53
2022/11/26 04:32:02;;;;;;;;;;;;;;;19.27;39.39;96673.72;10433018;28;2542;-57
2022/11/26 04:37:03;;;;;;;;;;;;;;;19.27;39.55;96674.53;10435922;28;2482;-56
2022/11/26 04:42:03;;;;;;;;;;;;;;;19.28;39.52;96684.03;10434118;28;2517;-56
2022/11/26 04:47:03;;;;;;;;;;;;;;;19.30;39.33;96686.41;10436371;28;2391;-55
2022/11/26 04:52:03;;;;;;;;;;;;;;;19.30;39.36;96707.44;10434998;28;2473;-52
2022/11/26 04:57:04;;;;;;;;;;;;;;;19.29;39.38;96706.63;10431660;28;2498;-56
2022/11/26 05:02:04;;;;;;;;;;;;;;;19.28;39.37;96717.41;10430492;28;2510;-55
2022/11/26 05:07:04;;;;;;;;;;;;;;;19.31;39.29;96715.06;10436998;28;2459;-57
2022/11/26 05:12:05;;;;;;;;;;;;;;;19.38;39.40;96715.75;10437473;28;2461;-56
2022/11/26 05:17:05;;;;;;;;;;;;;;;19.48;39.14;96725.59;10450152;28;2433;-55
2022/11/26 05:22:05;;;;;;;;;;;;;;;19.53;38.74;96730.13;10448368;28;2462;-55
2022/11/26 05:27:06;;;;;;;;;;;;;;;19.58;38.58;96732.84;10444615;28;2421;-57
2022/11/26 05:32:06;;;;;;;;;;;;;;;19.61;38.50;96741.03;10422436;28;2527;-57
2022/11/26 05:37:06;;;;;;;;;;;;;;;19.63;38.66;96738.13;10442922;28;2488;-56
2022/11/26 05:42:07;;;;;;;;;;;;;;;19.66;38.01;96754.22;10445164;28;2539;-57
2022/11/26 05:47:07;;;;;;;;;;;;;;;19.69;37.85;96745.84;10440913;28;2445;-55
2022/11/26 05:52:07;;;;;;;;;;;;;;;19.72;37.87;96761.13;10442656;28;2491;-55
2022/11/26 05:57:09;;;;;;;;;;;;;;;19.75;37.77;96757.22;10443758;28;2503;-55
2022/11/26 06:02:09;;;;;;;;;;;;;;;19.78;37.66;96756.75;10441278;28;2399;-56
2022/11/26 06:07:10;;;;;;;;;;;;;;;19.80;37.80;96768.63;10431971;28;2430;-56
2022/11/26 06:12:10;;;;;;;;;;;;;;;19.83;37.40;96765.50;10445424;28;2524;-56
2022/11/26 06:17:15;;;;;;;;;;;;;;;19.85;37.41;96768.69;10427991;28;2383;-57
2022/11/26 06:22:15;;;;;;;;;;;;;;;19.88;37.44;96772.66;10442327;28;2498;-56
2022/11/26 06:27:15;;;;;;;;;;;;;;;19.91;37.32;96780.06;10442559;28;2403;-55
2022/11/26 06:32:15;;;;;;;;;;;;;;;19.92;37.28;96777.22;10442072;28;2528;-56
2022/11/26 06:37:16;;;;;;;;;;;;;;;19.95;37.20;96778.53;10428689;28;2457;-56
2022/11/26 06:42:16;;;;;;;;;;;;;;;19.98;37.04;96775.44;10436321;28;2562;-56
2022/11/26 06:47:17;;;;;;;;;;;;;;;20.00;36.89;96787.31;10438801;28;2462;-58
2022/11/26 06:52:17;;;;;;;;;;;;;;;20.01;37.07;96802.03;10446403;28;2476;-57
2022/11/26 06:57:17;;;;;;;;;;;;;;;20.04;37.09;96811.28;10437500;28;2466;-56
2022/11/26 07:02:17;;;;;;;;;;;;;;;20.15;37.84;96803.25;10442638;28;2427;-56
2022/11/26 07:07:18;;;;;;;;;;;;;;;20.14;37.69;96824.56;10429671;28;2558;-56
2022/11/26 07:12:18;;;;;;;;;;;;;;;20.18;38.53;96823.03;10434913;28;2549;-56
2022/11/26 07:17:18;;;;;;;;;;;;;;;20.21;37.96;96833.13;10433812;28;2488;-55
2022/11/26 07:22:19;;;;;;;;;;;;;;;20.15;37.24;96834.06;10439248;28;2428;-57
2022/11/26 07:27:19;;;;;;;;;;;;;;;20.15;36.92;96841.97;10439365;28;2456;-54
2022/11/26 07:32:19;;;;;;;;;;;;;;;20.15;37.59;96845.38;10443174;28;2550;-55
2022/11/26 07:37:20;;;;;;;;;;;;;;;20.17;37.72;96864.34;10432015;28;2538;-55
2022/11/26 07:42:20;;;;;;;;;;;;;;;20.17;37.88;96853.81;10438323;28;2739;-56
2022/11/26 07:47:20;;;;;;;;;;;;;;;20.16;37.66;96854.09;10433128;28;2178;-53
2022/11/26 07:52:21;;;;;;;;;;;;;;;20.16;37.81;96860.16;10447536;28;2331;-55
2022/11/26 07:57:21;;;;;;;;;;;;;;;20.16;38.08;96859.34;10435031;28;2502;-55
2022/11/26 08:02:22;;;;;;;;;;;;;;;20.09;38.00;96850.84;10417290;28;2178;-53
2022/11/26 08:07:24;;;;;;;;;;;;;;;20.09;37.84;96871.91;10444404;28;2134;-55
2022/11/26 08:12:24;;;;;;;;;;;;;;;20.07;38.01;96874.00;10444065;28;2231;-55
2022/11/26 08:17:24;;;;;;;;;;;;;;;20.08;37.85;96880.81;10441806;28;2173;-55
2022/11/26 08:22:28;;;;;;;;;;;;;;;20.08;38.37;96880.81;10436128;28;2212;-55
2022/11/26 08:27:30;;;;;;;;;;;;;;;20.08;38.12;96883.47;10433705;28;2187;-57
2022/11/26 08:32:30;;;;;;;;;;;;;;;20.08;38.27;96883.47;10434056;28;2236;-55
2022/11/26 08:37:31;;;;;;;;;;;;;;;20.06;38.29;96888.16;10427881;28;2281;-56
2022/11/26 08:42:31;;;;;;;;;;;;;;;20.01;38.29;96886.25;10432478;28;2134;-55
2022/11/26 08:47:31;;;;;;;;;;;;;;;20.01;38.43;96893.38;10435809;28;2138;-54
2022/11/26 08:52:31;;;;;;;;;;;;;;;19.98;38.33;96892.03;10446545;28;2181;-57
2022/11/26 08:57:32;;;;;;;;;;;;;;;19.95;38.50;96891.69;10433653;28;2275;-56
2022/11/26 09:02:33;;;;;;;;;;;;;;;19.90;38.59;96908.22;10434179;28;2186;-55
2022/11/26 09:07:33;;;;;;;;;;;;;;;19.91;38.53;96903.75;10434624;28;2131;-56
2022/11/26 09:12:34;;;;;;;;;;;;;;;19.83;38.38;96920.75;10431429;28;2127;-56
2022/11/26 09:17:34;;;;;;;;;;;;;;;19.85;38.46;96925.75;10429025;28;2156;-56
2022/11/26 09:22:34;;;;;;;;;;;;;;;19.85;38.55;96936.28;10435886;28;2224;-56
2022/11/26 09:27:34;;;;;;;;;;;;;;;19.86;38.43;96943.16;10428658;28;2102;-54
2022/11/26 09:32:36;;;;;;;;;;;;;;;19.81;38.68;96946.50;10414118;28;2170;-52
2022/11/26 09:37:36;;;;;;;;;;;;;;;19.76;38.69;96946.44;10429972;28;2265;-57
2022/11/26 09:42:40;;;;;;;;;;;;;;;19.76;38.88;96956.94;10435832;28;2228;-56
2022/11/26 09:47:44;;;;;;;;;;;;;;;19.75;39.13;96959.81;10439245;28;2143;-55
2022/11/26 09:52:44;;;;;;;;;;;;;;;19.75;38.97;96957.16;10450113;28;2152;-54
2022/11/26 09:57:45;;;;;;;;;;;;;;;19.73;39.04;96952.16;10438285;28;2233;-54
2022/11/26 10:02:45;;;;;;;;;;;;;;;19.69;39.06;96947.59;10439059;28;2202;-56
2022/11/26 10:07:48;;;;;;;;;;;;;;;19.67;39.30;96949.69;10460478;28;2120;-54
2022/11/26 10:12:55;;;;;;;;;;;;;;;19.67;39.07;96949.69;10443832;28;2177;-55
2022/11/26 10:18:05;;;;;;;;;;;;;;;19.64;39.28;96939.66;10441461;28;2267;-56
2022/11/26 10:23:11;;;;;;;;;;;;;;;19.61;39.11;96937.47;10440581;28;2205;-56
2022/11/26 10:28:31;;;;;;;;;;;;;;;19.60;39.23;96938.53;10440653;28;2186;-56
2022/11/26 10:33:33;;;;;;;;;;;;;;;19.56;39.36;96935.56;10439211;28;2195;-54
2022/11/26 10:38:33;;;;;;;;;;;;;;;19.54;39.44;96939.50;10436400;28;2203;-56
2022/11/26 10:43:33;;;;;;;;;;;;;;;19.53;39.54;96937.88;10455200;28;2135;-56
2022/11/26 10:48:35;;;;;;;;;;;;;;;19.49;39.39;96943.59;10444838;28;2186;-56
2022/11/26 10:53:55;;;;;;;;;;;;;;;19.49;39.18;96937.56;10449783;28;2210;-55
2022/11/26 10:58:56;;;;;;;;;;;;;;;19.44;39.52;96930.38;10436708;28;2218;-55
2022/11/26 11:03:56;;;;;;;;;;;;;;;19.43;39.51;96928.78;10441876;28;2091;-54
2022/11/26 11:08:57;;;;;;;;;;;;;;;19.39;39.61;96926.88;10410489;28;2143;-53
2022/11/26 11:13:57;;;;;;;;;;;;;;;19.42;39.60;96926.38;10452467;28;2304;-54
2022/11/26 11:18:58;;;;;;;;;;;;;;;19.41;39.54;96914.28;10436242;28;2189;-54
2022/11/26 11:24:17;;;;;;;;;;;;;;;19.39;39.75;96906.63;10434881;28;2195;-55
2022/11/26 11:29:25;;;;;;;;;;;;;;;19.36;39.73;96912.38;10438897;28;2258;-51
2022/11/26 11:34:30;;;;;;;;;;;;;;;19.36;39.58;96907.13;10435914;28;2190;-56
2022/11/26 11:39:33;;;;;;;;;;;;;;;19.35;39.64;96905.50;10441161;28;2193;-54
2022/11/26 11:44:46;;;;;;;;;;;;;;;19.33;39.63;96896.25;10435947;28;2168;-54
2022/11/26 11:49:58;;;;;;;;;;;;;;;19.30;39.65;96908.03;10440851;28;2165;-54
2022/11/26 11:55:04;;;;;;;;;;;;;;;19.28;39.66;96907.47;10427736;28;2217;-57
2022/11/26 12:00:14;;;;;;;;;;;;;;;19.30;39.69;96908.03;10444057;28;2219;-51
2022/11/26 12:05:25;;;;;;;;;;;;;;;19.26;39.69;96909.53;10437116;28;2208;-52
2022/11/26 12:10:47;;;;;;;;;;;;;;;19.25;39.75;96913.19;10432745;28;2150;-55
2022/11/26 12:15:50;;;;;;;;;;;;;;;19.24;39.71;96902.91;10411789;28;2174;-56
2022/11/26 12:20:54;;;;;;;;;;;;;;;19.22;39.90;96908.41;10439278;28;2134;-53
2022/11/26 12:25:57;;;;;;;;;;;;;;;19.19;39.81;96910.72;10453369;28;2230;-51
2022/11/26 12:31:18;;;;;;;;;;;;;;;19.20;39.70;96913.13;10423814;28;2116;-52
2022/11/26 12:36:34;;;;;;;;;;;;;;;19.14;39.92;96924.59;10431864;28;2206;-55
2022/11/26 12:41:53;;;;;;;;;;;;;;;19.15;39.99;96920.09;10426850;28;2226;-51
2022/11/26 12:47:13;;;;;;;;;;;;;;;19.14;39.91;96924.59;10427905;28;2127;-54
2022/11/26 12:52:13;;;;;;;;;;;;;;;19.08;40.07;96922.88;10436196;28;2163;-54
2022/11/26 12:57:19;;;;;;;;;;;;;;;19.09;39.83;96916.59;10440763;28;2138;-55
2022/11/26 13:02:23;;;;;;;;;;;;;;;19.06;39.98;96922.31;10427836;28;2242;-56
2022/11/26 13:07:27;;;;;;;;;;;;;;;19.02;39.95;96920.41;10435828;28;2271;-53
2022/11/26 13:12:47;;;;;;;;;;;;;;;19.01;39.92;96924.84;10430241;28;2180;-56
2022/11/26 13:17:48;;;;;;;;;;;;;;;19.04;40.03;96927.00;10418982;28;2223;-55
2022/11/26 13:22:49;;;;;;;;;;;;;;;19.06;39.82;96932.81;10438014;28;2293;-54
2022/11/26 13:28:09;;;;;;;;;;;;;;;19.07;39.89;96929.16;10435905;28;2130;-56
2022/11/26 13:33:21;;;;;;;;;;;;;;;19.12;39.61;96928.47;10439287;28;2176;-55
2022/11/26 13:38:29;;;;;;;;;;;;;;;19.16;39.70;96921.72;10442890;28;2456;-55
2022/11/26 13:43:56;;;;;;;;;;;;;;;19.14;39.71;96924.59;10418700;28;2182;-55
2022/11/26 13:48:56;;;;;;;;;;;;;;;19.17;39.60;96920.66;10418160;28;2199;-54
2022/11/26 13:54:03;;;;;;;;;;;;;;;19.19;39.59;96918.59;10444203;28;2213;-52
2022/11/26 13:59:16;;;;;;;;;;;;;;;19.21;39.63;96914.69;10436283;28;2261;-52
2022/11/26 14:04:20;;;;;;;;;;;;;;;19.19;39.58;96916.75;10436245;28;2160;-49
2022/11/26 14:09:44;;;;;;;;;;;;;;;19.19;39.73;96911.50;10430999;28;2134;-54
2022/11/26 14:14:47;;;;;;;;;;;;;;;19.18;39.60;96911.75;10437301;28;2170;-50
2022/11/26 14:19:47;;;;;;;;;;;;;;;19.20;39.80;96909.69;10436800;28;2162;-52
2022/11/26 14:24:51;;;;;;;;;;;;;;;19.17;39.89;96903.06;10441217;28;2240;-52
2022/11/26 14:30:01;;;;;;;;;;;;;;;19.21;39.86;96906.00;10445038;28;2228;-52
2022/11/26 14:35:34;;;;;;;;;;;;;;;19.23;39.76;96906.56;10443146;28;2316;-52
2022/11/26 14:40:35;;;;;;;;;;;;;;;19.29;39.94;96901.16;10439684;28;2194;-56
2022/11/26 14:45:40;;;;;;;;;;;;;;;19.34;39.64;96908.38;10439743;28;2194;-52
2022/11/26 14:50:40;;;;;;;;;;;;;;;19.37;39.54;96911.31;10459793;28;2273;-55
2022/11/26 14:55:42;;;;;;;;;;;;;;;19.39;39.29;96906.63;10434985;28;2170;-54
2022/11/26 15:00:42;;;;;;;;;;;;;;;19.41;39.11;96914.28;10441882;28;2230;-54
2022/11/26 15:05:42;;;;;;;;;;;;;;;19.44;39.17;96914.59;10441015;28;2359;-50
2022/11/26 15:10:59;;;;;;;;;;;;;;;19.47;38.97;96919.38;10438652;28;2163;-54
2022/11/26 15:16:00;;;;;;;;;;;;;;;19.49;39.04;96922.56;10437899;28;2251;-51
2022/11/26 15:21:01;;;;;;;;;;;;;;;19.52;38.88;96941.53;10438869;28;2126;-55
2022/11/26 15:26:02;;;;;;;;;;;;;;;19.55;38.92;96935.81;10427208;28;2301;-55
2022/11/26 15:31:03;;;;;;;;;;;;;;;19.58;38.84;96935.34;10436304;28;2138;-51
2022/11/26 15:36:04;;;;;;;;;;;;;;;19.59;38.73;96936.94;10434250;28;2196;-53
2022/11/26 15:41:05;;;;;;;;;;;;;;;19.61;38.71;96933.03;10440608;28;2074;-55
2022/11/26 15:46:15;;;;;;;;;;;;;;;19.65;38.74;96935.97;10436532;28;2324;-52
2022/11/26 15:51:36;;;;;;;;;;;;;;;19.67;38.65;96932.06;10437536;28;2260;-56
2022/11/26 15:56:36;;;;;;;;;;;;;;;19.69;38.72;96929.19;10440069;28;2090;-54
2022/11/26 16:01:37;;;;;;;;;;;;;;;19.72;38.67;96931.34;10446510;28;2200;-55
2022/11/26 16:06:37;;;;;;;;;;;;;;;19.75;38.62;96933.50;10436454;28;2292;-55
2022/11/26 16:11:39;;;;;;;;;;;;;;;19.77;38.37;96928.78;10415408;28;2067;-51
2022/11/26 16:16:39;;;;;;;;;;;;;;;19.77;38.33;96918.25;10439270;28;2210;-51
2022/11/26 16:21:39;;;;;;;;;;;;;;;19.80;38.03;96918.59;10418263;28;2228;-55
2022/11/26 16:26:53;;;;;;;;;;;;;;;19.84;38.62;96918.91;10449844;28;2222;-50
2022/11/26 16:31:53;;;;;;;;;;;;;;;19.86;37.88;96916.84;10438348;28;2166;-51
2022/11/26 16:37:00;;;;;;;;;;;;;;;19.91;37.76;96915.06;10435528;28;2246;-51
2022/11/26 16:42:01;;;;;;;;;;;;;;;19.90;37.56;96924.00;10431376;28;2189;-54
2022/11/26 16:47:01;;;;;;;;;;;;;;;19.91;37.44;96922.16;10436510;28;2274;-52
2022/11/26 16:52:01;;;;;;;;;;;;;;;19.92;37.24;96926.41;10441496;28;2274;-54
2022/11/26 16:57:02;;;;;;;;;;;;;;;19.94;37.42;96926.97;10439113;28;2179;-55
2022/11/26 17:02:02;;;;;;;;;;;;;;;19.95;37.43;96931.16;10438171;28;2256;-53
2022/11/26 17:07:02;;;;;;;;;;;;;;;19.97;37.35;96929.88;10450261;28;2150;-53
2022/11/26 17:12:02;;;;;;;;;;;;;;;19.99;37.40;96927.03;10448485;28;2164;-54
2022/11/26 17:17:03;;;;;;;;;;;;;;;20.08;37.91;96928.22;10451975;28;2186;-54
2022/11/26 17:22:04;;;;;;;;;;;;;;;20.06;37.45;96922.38;10453152;28;2204;-54
2022/11/26 17:27:05;;;;;;;;;;;;;;;20.05;37.37;96926.84;10453966;28;2126;-55
2022/11/26 17:32:06;;;;;;;;;;;;;;;20.05;37.32;96929.47;10449790;28;2199;-56
2022/11/26 17:37:09;;;;;;;;;;;;;;;20.07;37.34;96921.38;10447761;28;2173;-54
2022/11/26 17:42:09;;;;;;;;;;;;;;;20.07;37.04;96918.72;10453045;28;2192;-53
2022/11/26 17:47:16;;;;;;;;;;;;;;;20.15;38.10;96921.72;10447322;28;2202;-54
2022/11/26 17:52:16;;;;;;;;;;;;;;;20.14;37.29;96920.16;10452589;28;2204;-52
2022/11/26 17:57:17;;;;;;;;;;;;;;;20.13;37.16;96925.66;10448229;28;2131;-53
2022/11/26 18:02:17;;;;;;;;;;;;;;;20.11;37.05;96925.88;10445788;28;2152;-54
2022/11/26 18:07:18;;;;;;;;;;;;;;;20.10;37.70;96928.75;10447676;28;2209;-55
2022/11/26 18:12:22;;;;;;;;;;;;;;;20.08;37.85;96938.72;10443366;28;2191;-53
2022/11/26 18:17:22;;;;;;;;;;;;;;;20.08;38.23;96922.94;10446382;28;2204;-54
2022/11/26 18:22:23;;;;;;;;;;;;;;;20.07;38.45;96935.31;10444224;28;2264;-54
2022/11/26 18:27:25;;;;;;;;;;;;;;;20.07;38.73;96950.31;10447313;28;2309;-55
2022/11/26 18:32:26;;;;;;;;;;;;;;;20.08;39.39;96946.63;10447080;28;2151;-54
2022/11/26 18:37:28;;;;;;;;;;;;;;;20.06;39.31;96948.72;10440339;28;2161;-52
2022/11/26 18:42:28;;;;;;;;;;;;;;;20.02;39.67;96952.88;10429070;28;2151;-55
2022/11/26 18:47:28;;;;;;;;;;;;;;;20.02;39.55;96951.03;10446350;28;2526;-55
2022/11/26 18:52:29;;;;;;;;;;;;;;;20.01;39.65;96951.28;10445462;28;2125;-56
2022/11/26 18:57:29;;;;;;;;;;;;;;;19.96;39.73;96949.38;10451930;28;2166;-55
2022/11/26 19:02:29;;;;;;;;;;;;;;;19.99;40.04;96956.00;10439445;28;2262;-55
2022/11/26 19:07:31;;;;;;;;;;;;;;;19.95;39.93;96947.75;10440575;28;2271;-56
2022/11/26 19:12:31;;;;;;;;;;;;;;;19.90;40.10;96950.34;10435992;28;2167;-54
2022/11/26 19:17:32;;;;;;;;;;;;;;;19.90;40.11;96949.53;10439949;28;2325;-54
2022/11/26 19:22:32;;;;;;;;;;;;;;;19.88;40.09;96956.88;10437054;28;2190;-55
2022/11/26 19:27:32;;;;;;;;;;;;;;;19.86;40.09;96953.69;10435354;28;2147;-55
2022/11/26 19:32:33;;;;;;;;;;;;;;;19.86;40.04;96951.03;10441175;28;2238;-56
2022/11/26 19:37:33;;;;;;;;;;;;;;;19.79;40.05;96956.47;10436331;28;2165;-54
2022/11/26 19:42:33;;;;;;;;;;;;;;;19.81;39.92;96957.03;10427797;28;2298;-54
2022/11/26 19:47:34;;;;;;;;;;;;;;;19.75;39.93;96946.66;10442616;28;2288;-53
2022/11/26 19:52:34;;;;;;;;;;;;;;;19.70;40.04;96943.97;10443519;28;2191;-54
2022/11/26 19:57:34;;;;;;;;;;;;;;;19.68;40.19;96931.03;10439084;28;2122;-52
2022/11/26 20:02:35;;;;;;;;;;;;;;;19.68;40.19;96930.25;10436144;28;2165;-53
2022/11/26 20:07:35;;;;;;;;;;;;;;;19.62;40.16;96920.69;10443680;28;2205;-54
2022/11/26 20:12:35;;;;;;;;;;;;;;;19.56;40.38;96924.25;10444542;28;2102;-53
2022/11/26 20:17:36;;;;;;;;;;;;;;;19.55;40.26;96923.47;10441487;28;2308;-53
2022/11/26 20:22:36;;;;;;;;;;;;;;;19.52;40.38;96920.50;10447915;28;2151;-52
2022/11/26 20:27:38;;;;;;;;;;;;;;;19.48;40.37;96926.25;10450630;28;2165;-53
2022/11/26 20:32:39;;;;;;;;;;;;;;;19.49;40.19;96922.56;10445179;28;2252;-54
2022/11/26 20:37:39;;;;;;;;;;;;;;;19.46;40.22;96906.47;10443759;28;2150;-57
2022/11/26 20:42:40;;;;;;;;;;;;;;;19.47;40.37;96903.59;10436649;28;2152;-55
2022/11/26 20:47:40;;;;;;;;;;;;;;;19.45;40.11;96904.91;10437717;28;2179;-57
2022/11/26 20:52:40;;;;;;;;;;;;;;;19.43;40.09;96902.47;10439637;28;2139;-54
2022/11/26 20:57:41;;;;;;;;;;;;;;;19.39;39.98;96890.06;10438026;28;2207;-54
2022/11/26 21:02:44;;;;;;;;;;;;;;;19.40;40.06;96895.09;10436549;28;2207;-53
2022/11/26 21:07:45;;;;;;;;;;;;;;;19.36;40.32;96891.34;10435366;28;2233;-55
2022/11/26 21:12:45;;;;;;;;;;;;;;;19.34;40.84;96898.66;10445637;28;2201;-53
2022/11/26 21:17:45;;;;;;;;;;;;;;;19.32;41.54;96890.19;10420853;28;2171;-55
2022/11/26 21:22:46;;;;;;;;;;;;;;;19.33;41.78;96891.81;10443280;28;2132;-54
2022/11/26 21:27:46;;;;;;;;;;;;;;;19.33;41.68;96883.09;10432557;28;2518;-54
2022/11/26 21:32:46;;;;;;;;;;;;;;;19.32;41.51;96884.94;10442696;28;2139;-54
2022/11/26 21:37:46;;;;;;;;;;;;;;;19.30;41.82;96887.00;10438064;28;2167;-52
2022/11/26 21:42:47;;;;;;;;;;;;;;;19.26;41.90;96883.25;10434387;28;2194;-54
2022/11/26 21:47:50;;;;;;;;;;;;;;;19.28;41.67;96889.06;10438185;28;2191;-56
2022/11/26 21:52:50;;;;;;;;;;;;;;;19.24;41.70;96877.44;10442847;28;2207;-55
2022/11/26 21:57:51;;;;;;;;;;;;;;;19.24;41.63;96874.81;10443237;28;2132;-56
2022/11/26 22:02:52;;;;;;;;;;;;;;;19.24;41.67;96874.81;10445841;28;2127;-53
2022/11/26 22:07:52;;;;;;;;;;;;;;;19.20;41.64;96880.78;10446483;28;2220;-56
2022/11/26 22:12:52;;;;;;;;;;;;;;;19.17;41.72;96875.97;10442482;28;2126;-54
2022/11/26 22:17:52;;;;;;;;;;;;;;;19.18;41.60;96881.03;10444406;28;2154;-54
2022/11/26 22:22:53;;;;;;;;;;;;;;;19.13;41.48;96875.66;10448130;28;2190;-57
2022/11/26 22:27:53;;;;;;;;;;;;;;;19.16;41.49;96875.19;10427813;28;2268;-54
2022/11/26 22:32:54;;;;;;;;;;;;;;;19.11;41.39;96876.94;10436921;28;2203;-56
2022/11/26 22:37:54;;;;;;;;;;;;;;;19.09;41.35;96879.00;10433190;28;2186;-56
2022/11/26 22:42:55;;;;;;;;;;;;;;;19.07;41.32;96884.50;10434251;28;2186;-56
2022/11/26 22:47:55;;;;;;;;;;;;;;;19.05;41.20;96904.97;10427519;28;2111;-54
2022/11/26 22:52:55;;;;;;;;;;;;;;;19.05;41.22;96899.69;10447533;28;2202;-57
2022/11/26 22:57:55;;;;;;;;;;;;;;;19.03;41.21;96893.09;10440931;28;2176;-52
2022/11/26 23:02:56;;;;;;;;;;;;;;;19.03;41.00;96890.44;10439711;28;2198;-52
2022/11/26 23:08:00;;;;;;;;;;;;;;;19.04;40.97;96887.59;10443394;28;2315;-49
2022/11/26 23:13:01;;;;;;;;;;;;;;;18.97;40.97;96884.31;10437652;28;2205;-54
2022/11/26 23:18:01;;;;;;;;;;;;;;;18.97;40.88;96876.44;10441183;28;2239;-53
2022/11/26 23:23:01;;;;;;;;;;;;;;;18.97;40.82;96870.38;10448868;28;2232;-52
2022/11/26 23:28:01;;;;;;;;;;;;;;;18.94;40.82;96855.88;10441916;28;2211;-53
2022/11/26 23:33:02;;;;;;;;;;;;;;;18.95;40.85;96852.22;10421947;28;2167;-54
2022/11/26 23:38:02;;;;;;;;;;;;;;;18.96;40.63;96853.03;10435218;28;2143;-54
2022/11/26 23:43:02;;;;;;;;;;;;;;;18.92;40.78;96850.06;10434877;28;2271;-54
2022/11/26 23:48:02;;;;;;;;;;;;;;;18.89;40.58;96844.50;10428753;28;2513;-55
2022/11/26 23:53:05;;;;;;;;;;;;;;;18.90;40.54;96841.63;10434439;28;2126;-54
2022/11/26 23:58:05;;;;;;;;;;;;;;;18.87;40.49;96831.59;10435633;28;2222;-54
